createdAt,value
2023-04-02T00:00:30.912Z,75.60
2023-04-02T00:03:03.884Z,75.50
2023-04-02T00:05:52.699Z,75.60
2023-04-02T00:08:31.497Z,75.50
2023-04-02T00:11:03.489Z,75.70
2023-04-02T00:13:37.404Z,75.60
2023-04-02T00:16:09.544Z,75.60
2023-04-02T00:18:47.391Z,75.70
2023-04-02T00:21:26.890Z,75.60
2023-04-02T00:24:02.951Z,75.50
2023-04-02T00:26:34.041Z,75.60
2023-04-02T00:29:06.986Z,75.50
2023-04-02T00:31:48.002Z,75.60
2023-04-02T00:34:24.389Z,75.50
2023-04-02T00:36:59.539Z,75.50
2023-04-02T00:39:33.550Z,75.50
2023-04-02T00:42:06.166Z,75.60
2023-04-02T00:44:42.801Z,76.30
2023-04-02T00:47:21.506Z,75.50
2023-04-02T00:50:00.048Z,75.40
2023-04-02T00:52:34.542Z,75.40
2023-04-02T00:55:12.449Z,75.20
2023-04-02T00:57:45.024Z,75.10
2023-04-02T01:00:25.024Z,75.90
2023-04-02T01:03:41.726Z,74.90
2023-04-02T01:06:19.014Z,75.00
2023-04-02T01:09:16.010Z,75.00
2023-04-02T01:12:14.442Z,74.60
2023-04-02T01:14:53.434Z,74.60
2023-04-02T01:17:36.838Z,74.60
2023-04-02T01:20:37.057Z,74.60
2023-04-02T01:23:16.060Z,74.60
2023-04-02T01:25:54.309Z,75.80
2023-04-02T01:28:32.153Z,75.80
2023-04-02T01:31:07.809Z,75.80
2023-04-02T01:33:45.843Z,76.10
2023-04-02T01:36:22.001Z,76.20
2023-04-02T01:38:56.215Z,75.90
2023-04-02T01:41:35.653Z,75.70
2023-04-02T01:44:08.335Z,75.90
2023-04-02T01:46:44.253Z,76.00
2023-04-02T01:49:22.922Z,75.90
2023-04-02T01:52:05.053Z,76.10
2023-04-02T01:54:42.124Z,75.80
2023-04-02T01:57:25.639Z,75.40
2023-04-02T02:00:09.587Z,75.50
2023-04-02T02:02:53.108Z,75.70
2023-04-02T02:05:28.711Z,75.40
2023-04-02T02:08:06.154Z,75.40
2023-04-02T02:10:37.403Z,75.50
2023-04-02T02:13:06.900Z,75.30
2023-04-02T02:15:47.355Z,75.40
2023-04-02T02:18:23.599Z,75.40
2023-04-02T02:21:11.918Z,75.00
2023-04-02T02:23:42.979Z,75.20
2023-04-02T02:26:19.152Z,75.10
2023-04-02T02:28:57.349Z,75.20
2023-04-02T02:31:34.411Z,75.00
2023-04-02T02:34:20.156Z,75.60
2023-04-02T02:37:05.918Z,75.10
2023-04-02T02:39:45.123Z,74.90
2023-04-02T02:44:08.199Z,74.70
2023-04-02T02:50:06.910Z,74.50
2023-04-02T02:52:56.164Z,74.80
2023-04-02T02:55:37.354Z,74.70
2023-04-02T02:58:44.562Z,74.80
2023-04-02T03:01:24.794Z,74.70
2023-04-02T03:03:56.896Z,74.60
2023-04-02T03:06:28.554Z,74.90
2023-04-02T03:09:13.516Z,74.70
2023-04-02T03:11:59.497Z,74.70
2023-04-02T03:14:44.214Z,74.30
2023-04-02T03:17:24.029Z,74.40
2023-04-02T03:20:00.661Z,74.30
2023-04-02T03:22:54.110Z,74.30
2023-04-02T03:25:47.444Z,74.00
2023-04-02T03:28:24.792Z,74.00
2023-04-02T03:31:01.490Z,74.10
2023-04-02T03:33:41.209Z,74.20
2023-04-02T03:36:24.165Z,74.10
2023-04-02T03:39:04.530Z,74.00
2023-04-02T03:41:49.589Z,73.90
2023-04-02T03:47:38.046Z,73.20
2023-04-02T03:50:21.075Z,73.30
2023-04-02T03:52:59.154Z,73.50
2023-04-02T03:55:38.180Z,73.40
2023-04-02T03:58:17.630Z,73.50
2023-04-02T04:00:54.692Z,73.70
2023-04-02T04:03:34.004Z,73.70
2023-04-02T04:06:13.884Z,73.40
2023-04-02T04:08:58.955Z,73.60
2023-04-02T04:11:44.575Z,73.90
2023-04-02T04:14:18.309Z,73.80
2023-04-02T04:16:53.752Z,73.50
2023-04-02T04:19:49.784Z,73.40
2023-04-02T04:22:25.270Z,73.70
2023-04-02T04:25:04.219Z,73.50
2023-04-02T04:27:44.846Z,73.60
2023-04-02T04:30:27.459Z,73.30
2023-04-02T04:33:03.104Z,73.50
2023-04-02T04:35:44.853Z,73.40
2023-04-02T04:38:21.908Z,73.50
2023-04-02T04:40:55.062Z,73.40
2023-04-02T04:43:46.592Z,73.40
2023-04-02T04:46:22.013Z,73.30
2023-04-02T04:49:07.746Z,73.40
2023-04-02T04:51:40.661Z,73.50
2023-04-02T04:54:14.737Z,73.50
2023-04-02T04:56:52.143Z,73.40
2023-04-02T04:59:27.445Z,73.40
2023-04-02T05:02:04.451Z,73.60
2023-04-02T05:04:40.679Z,73.40
2023-04-02T05:07:22.788Z,73.40
2023-04-02T05:09:59.593Z,73.20
2023-04-02T05:12:46.481Z,73.20
2023-04-02T05:15:27.176Z,73.10
2023-04-02T05:18:10.936Z,72.90
2023-04-02T05:20:51.463Z,73.00
2023-04-02T05:23:28.382Z,73.20
2023-04-02T05:26:14.533Z,73.20
2023-04-02T05:28:59.540Z,73.20
2023-04-02T05:31:41.128Z,73.40
2023-04-02T05:34:15.932Z,73.10
2023-04-02T05:36:48.893Z,73.00
2023-04-02T05:39:27.735Z,72.60
2023-04-02T05:42:11.156Z,72.50
2023-04-02T05:45:06.210Z,73.00
2023-04-02T05:47:54.499Z,72.60
2023-04-02T05:50:37.511Z,72.80
2023-04-02T05:53:16.302Z,72.80
2023-04-02T05:55:58.891Z,73.40
2023-04-02T05:58:43.999Z,72.50
2023-04-02T06:01:41.474Z,72.40
2023-04-02T06:04:34.631Z,72.30
2023-04-02T06:07:12.577Z,72.20
2023-04-02T06:10:02.369Z,72.50
2023-04-02T06:12:42.441Z,72.50
2023-04-02T06:15:28.102Z,72.50
2023-04-02T06:18:07.287Z,72.40
2023-04-02T06:20:41.351Z,72.90
2023-04-02T06:23:22.362Z,72.80
2023-04-02T06:25:58.816Z,72.80
2023-04-02T06:28:34.337Z,72.50
2023-04-02T06:31:15.444Z,72.70
2023-04-02T06:33:54.334Z,72.60
2023-04-02T06:36:38.298Z,73.10
2023-04-02T06:39:20.978Z,72.80
2023-04-02T06:42:03.122Z,72.80
2023-04-02T06:45:02.670Z,72.50
2023-04-02T06:47:42.513Z,72.30
2023-04-02T06:50:24.002Z,72.20
2023-04-02T06:53:33.824Z,72.40
2023-04-02T06:56:20.455Z,72.20
2023-04-02T06:58:55.060Z,71.90
2023-04-02T07:01:36.708Z,72.30
2023-04-02T07:04:27.415Z,71.90
2023-04-02T07:07:03.563Z,71.70
2023-04-02T07:09:44.354Z,71.60
2023-04-02T07:12:18.993Z,71.60
2023-04-02T07:14:51.266Z,71.70
2023-04-02T07:17:26.338Z,72.00
2023-04-02T07:19:59.441Z,71.90
2023-04-02T07:22:31.859Z,71.70
2023-04-02T07:25:11.531Z,71.70
2023-04-02T07:27:44.340Z,71.70
2023-04-02T07:30:17.477Z,71.70
2023-04-02T07:32:52.866Z,72.40
2023-04-02T07:35:29.886Z,71.70
2023-04-02T07:38:03.554Z,71.90
2023-04-02T07:40:43.714Z,71.70
2023-04-02T07:43:20.337Z,71.40
2023-04-02T07:45:58.584Z,71.40
2023-04-02T07:48:30.395Z,71.70
2023-04-02T07:51:05.138Z,71.90
2023-04-02T07:53:36.142Z,71.50
2023-04-02T07:56:08.210Z,71.40
2023-04-02T07:58:41.406Z,71.40
2023-04-02T08:01:17.835Z,71.30
2023-04-02T08:03:46.481Z,70.70
2023-04-02T08:06:23.005Z,71.40
2023-04-02T08:08:57.552Z,71.40
2023-04-02T08:11:34.345Z,71.40
2023-04-02T08:14:14.250Z,71.20
2023-04-02T08:16:54.076Z,71.20
2023-04-02T08:19:55.241Z,70.90
2023-04-02T08:22:29.095Z,71.70
2023-04-02T08:25:04.801Z,71.10
2023-04-02T08:35:05.780Z,70.60
2023-04-02T08:38:10.020Z,70.20
2023-04-02T08:40:42.803Z,69.60
2023-04-02T08:44:05.308Z,69.40
2023-04-02T08:46:47.661Z,68.90
2023-04-02T08:49:27.418Z,68.60
2023-04-02T08:52:07.189Z,68.60
2023-04-02T08:54:56.140Z,68.10
2023-04-02T08:57:41.201Z,68.10
2023-04-02T09:00:32.426Z,68.10
2023-04-02T09:03:34.689Z,68.20
2023-04-02T09:06:11.658Z,68.10
2023-04-02T09:08:51.236Z,67.90
2023-04-02T09:11:38.503Z,67.10
2023-04-02T09:14:33.912Z,66.90
2023-04-02T09:17:10.453Z,67.40
2023-04-02T09:20:21.437Z,67.70
2023-04-02T09:23:10.073Z,67.00
2023-04-02T09:26:05.088Z,66.80
2023-04-02T09:29:04.113Z,67.10
2023-04-02T09:31:47.394Z,66.60
2023-04-02T09:34:49.241Z,66.50
2023-04-02T09:37:29.126Z,66.30
2023-04-02T09:40:30.658Z,66.70
2023-04-02T09:43:14.810Z,66.50
2023-04-02T09:45:59.814Z,66.60
2023-04-02T09:48:31.982Z,66.70
2023-04-02T09:51:18.155Z,66.80
2023-04-02T09:54:03.535Z,66.80
2023-04-02T09:57:04.913Z,66.90
2023-04-02T09:59:37.676Z,66.50
2023-04-02T10:02:29.989Z,67.00
2023-04-02T10:05:06.149Z,66.30
2023-04-02T10:07:45.013Z,66.30
2023-04-02T10:10:26.314Z,66.80
2023-04-02T10:13:03.947Z,66.70
2023-04-02T10:15:40.240Z,66.30
2023-04-02T10:18:16.311Z,65.90
2023-04-02T10:20:51.267Z,65.90
2023-04-02T10:23:21.844Z,66.10
2023-04-02T10:26:00.302Z,66.10
2023-04-02T10:28:42.763Z,66.10
2023-04-02T10:34:34.870Z,66.10
2023-04-02T10:37:21.889Z,65.80
2023-04-02T10:40:13.980Z,66.00
2023-04-02T10:42:55.442Z,65.80
2023-04-02T10:45:39.939Z,66.00
2023-04-02T10:48:32.449Z,65.70
2023-04-02T10:51:06.122Z,65.60
2023-04-02T10:53:45.249Z,65.60
2023-04-02T10:56:14.654Z,65.40
2023-04-02T10:58:56.161Z,65.40
2023-04-02T11:01:29.962Z,65.40
2023-04-02T11:04:02.591Z,65.40
2023-04-02T11:06:37.325Z,65.30
2023-04-02T11:09:08.853Z,65.30
2023-04-02T11:11:41.182Z,65.20
2023-04-02T11:14:16.165Z,65.40
2023-04-02T11:16:57.868Z,65.30
2023-04-02T11:19:28.844Z,65.60
2023-04-02T11:22:06.524Z,65.00
2023-04-02T11:29:42.284Z,65.30
2023-04-02T11:40:01.129Z,64.70
2023-04-02T11:43:03.356Z,65.30
2023-04-02T11:45:56.426Z,64.80
2023-04-02T11:48:30.569Z,64.60
2023-04-02T11:50:59.598Z,64.60
2023-04-02T11:53:34.254Z,64.60
2023-04-02T11:56:21.095Z,64.20
2023-04-02T11:59:05.283Z,64.20
2023-04-02T12:02:01.587Z,64.10
2023-04-02T12:05:03.513Z,64.20
2023-04-02T12:08:05.805Z,64.60
2023-04-02T12:10:35.702Z,64.30
2023-04-02T12:13:03.973Z,63.80
2023-04-02T12:19:17.745Z,63.70
2023-04-02T12:21:53.532Z,63.30
2023-04-02T12:24:24.477Z,63.30
2023-04-02T12:27:08.555Z,63.40
2023-04-02T12:29:39.254Z,63.30
2023-04-02T12:32:20.659Z,63.40
2023-04-02T12:34:52.845Z,63.00
2023-04-02T12:37:23.101Z,62.50
2023-04-02T12:39:56.816Z,62.70
2023-04-02T12:42:31.956Z,62.90
2023-04-02T12:45:00.860Z,61.70
2023-04-02T12:47:30.482Z,61.60
2023-04-02T12:50:04.384Z,60.70
2023-04-02T12:52:35.798Z,60.40
2023-04-02T12:55:07.322Z,60.30
2023-04-02T12:57:48.977Z,60.10
2023-04-02T13:00:36.871Z,61.20
2023-04-02T13:03:22.286Z,60.10
2023-04-02T13:05:58.666Z,60.20
2023-04-02T13:08:30.713Z,60.20
2023-04-02T13:11:01.797Z,60.00
2023-04-02T13:13:33.973Z,59.90
2023-04-02T13:16:04.953Z,59.30
2023-04-02T13:18:38.126Z,59.10
2023-04-02T13:21:28.120Z,58.80
2023-04-02T13:23:57.495Z,58.90
2023-04-02T13:26:27.854Z,59.20
2023-04-02T13:29:01.186Z,58.90
2023-04-02T13:31:30.215Z,59.80
2023-04-02T13:33:58.787Z,60.10
2023-04-02T13:36:29.615Z,60.10
2023-04-02T13:38:58.542Z,60.00
2023-04-02T13:41:28.669Z,60.00
2023-04-02T13:44:00.034Z,60.00
2023-04-02T13:46:41.654Z,60.00
2023-04-02T13:49:11.774Z,60.30
2023-04-02T13:51:46.135Z,60.70
2023-04-02T13:54:20.883Z,60.50
2023-04-02T13:56:49.655Z,59.80
2023-04-02T13:59:18.331Z,59.80
2023-04-02T14:02:12.941Z,60.00
2023-04-02T14:04:44.799Z,59.80
2023-04-02T14:07:36.670Z,60.20
2023-04-02T14:10:29.050Z,60.50
2023-04-02T14:13:16.971Z,59.80
2023-04-02T14:16:22.978Z,59.70
2023-04-02T14:19:08.833Z,59.80
2023-04-02T14:21:49.341Z,59.90
2023-04-02T14:24:24.791Z,60.00
2023-04-02T14:27:17.529Z,60.10
2023-04-02T14:29:56.125Z,60.10
2023-04-02T14:33:36.261Z,59.20
2023-04-02T14:36:13.736Z,59.40
2023-04-02T14:38:52.190Z,60.10
2023-04-02T14:41:27.529Z,59.50
2023-04-02T14:44:00.515Z,59.50
2023-04-02T14:46:37.281Z,59.60
2023-04-02T14:49:19.966Z,59.20
2023-04-02T14:51:52.915Z,59.20
2023-04-02T14:54:27.368Z,59.30
2023-04-02T14:56:59.807Z,59.40
2023-04-02T14:59:33.083Z,59.30
2023-04-02T15:02:06.009Z,59.20
2023-04-02T15:04:41.683Z,59.20
2023-04-02T15:07:19.902Z,59.30
2023-04-02T15:09:58.203Z,59.10
2023-04-02T15:12:34.431Z,59.10
2023-04-02T15:15:13.873Z,58.80
2023-04-02T15:17:45.481Z,58.60
2023-04-02T15:20:17.700Z,59.00
2023-04-02T15:22:58.246Z,58.90
2023-04-02T15:25:33.374Z,58.90
2023-04-02T15:28:19.567Z,58.90
2023-04-02T15:30:52.816Z,59.00
2023-04-02T15:33:44.417Z,59.10
2023-04-02T15:36:51.540Z,59.10
2023-04-02T15:39:38.984Z,59.20
2023-04-02T15:42:20.113Z,59.10
2023-04-02T15:45:27.995Z,59.40
2023-04-02T15:48:30.125Z,59.00
2023-04-02T15:51:11.651Z,58.90
2023-04-02T15:53:55.388Z,58.90
2023-04-02T15:56:41.565Z,58.90
2023-04-02T15:59:43.140Z,59.00
2023-04-02T16:02:42.504Z,59.00
2023-04-02T16:05:18.891Z,58.90
2023-04-02T16:08:07.304Z,59.40
2023-04-02T16:10:42.408Z,58.80
2023-04-02T16:13:20.006Z,58.90
2023-04-02T16:15:53.640Z,59.00
2023-04-02T16:18:38.099Z,59.00
2023-04-02T16:21:08.120Z,59.00
2023-04-02T16:23:39.685Z,59.00
2023-04-02T16:26:34.638Z,59.10
2023-04-02T16:29:44.020Z,59.00
2023-04-02T16:32:28.310Z,58.90
2023-04-02T16:35:20.991Z,59.20
2023-04-02T16:38:08.174Z,59.10
2023-04-02T16:41:29.753Z,59.10
2023-04-02T16:44:09.061Z,58.90
2023-04-02T16:49:38.420Z,58.80
2023-04-02T16:52:24.257Z,58.80
2023-04-02T16:55:23.614Z,58.90
2023-04-02T16:58:01.553Z,58.80
2023-04-02T17:00:37.348Z,59.00
2023-04-02T17:03:23.134Z,59.00
2023-04-02T17:06:03.553Z,59.00
2023-04-02T17:08:37.728Z,59.00
2023-04-02T17:11:08.413Z,58.90
2023-04-02T17:13:42.169Z,59.00
2023-04-02T17:16:20.746Z,59.00
2023-04-02T17:18:54.289Z,59.00
2023-04-02T17:21:27.607Z,58.80
2023-04-02T17:23:58.415Z,58.80
2023-04-02T17:26:29.714Z,59.10
2023-04-02T17:29:01.636Z,58.90
2023-04-02T17:31:54.732Z,59.10
2023-04-02T17:34:58.493Z,59.10
2023-04-02T17:38:03.724Z,59.20
2023-04-02T17:41:05.703Z,59.10
2023-04-02T17:43:40.886Z,59.30
2023-04-02T17:46:18.031Z,59.20
2023-04-02T17:48:48.812Z,59.10
2023-04-02T17:51:30.127Z,59.20
2023-04-02T17:54:13.525Z,59.20
2023-04-02T17:56:58.542Z,59.20
2023-04-02T18:00:24.180Z,59.20
2023-04-02T18:03:56.110Z,59.20
2023-04-02T18:06:33.350Z,59.30
2023-04-02T18:09:19.233Z,59.30
2023-04-02T18:11:55.973Z,59.40
2023-04-02T18:14:38.262Z,59.40
2023-04-02T18:17:17.990Z,59.50
2023-04-02T18:23:30.544Z,59.60
2023-04-02T18:26:41.310Z,59.90
2023-04-02T18:30:03.877Z,59.80
2023-04-02T18:32:50.188Z,59.90
2023-04-02T18:35:24.786Z,59.90
2023-04-02T18:38:05.020Z,60.30
2023-04-02T18:40:44.456Z,60.00
2023-04-02T18:43:28.250Z,60.10
2023-04-02T18:46:06.486Z,59.80
2023-04-02T18:48:45.148Z,60.10
2023-04-02T18:51:19.825Z,60.10
2023-04-02T18:53:57.888Z,60.10
2023-04-02T18:56:30.240Z,60.20
2023-04-02T18:59:13.880Z,60.40
2023-04-02T19:01:48.045Z,60.50
2023-04-02T19:05:08.201Z,60.60
2023-04-02T19:08:20.950Z,60.70
2023-04-02T19:26:26.336Z,61.00
2023-04-02T19:30:11.842Z,61.90
2023-04-02T19:34:18.122Z,61.20
2023-04-02T19:36:53.816Z,61.50
2023-04-02T19:48:18.179Z,61.30
2023-04-02T19:55:11.305Z,61.40
2023-04-02T19:57:42.236Z,61.70
2023-04-02T20:00:46.014Z,61.80
2023-04-02T20:04:13.726Z,61.50
2023-04-02T20:06:42.941Z,61.60
2023-04-02T20:10:04.568Z,61.70
2023-04-02T20:13:25.252Z,61.70
2023-04-02T20:15:58.509Z,61.30
2023-04-02T20:22:40.902Z,61.60
2023-04-02T20:25:16.911Z,61.70
2023-04-02T20:27:49.396Z,61.70
2023-04-02T20:30:18.180Z,61.80
2023-04-02T20:32:48.899Z,61.70
2023-04-02T20:35:24.898Z,61.90
2023-04-02T20:37:55.800Z,61.60
2023-04-02T20:40:25.679Z,61.70
2023-04-02T20:42:57.542Z,61.70
2023-04-02T20:45:27.914Z,61.60
2023-04-02T20:48:00.386Z,61.70
2023-04-02T20:50:33.141Z,61.60
2023-04-02T20:53:02.068Z,61.50
2023-04-02T20:55:30.563Z,61.60
2023-04-02T20:57:59.160Z,61.50
2023-04-02T21:00:35.269Z,61.50
2023-04-02T21:03:09.945Z,61.60
2023-04-02T21:05:46.708Z,61.50
2023-04-02T21:08:22.754Z,61.30
2023-04-02T21:10:51.317Z,61.30
2023-04-02T21:13:20.058Z,61.30
2023-04-02T21:15:53.645Z,61.20
2023-04-02T21:18:24.196Z,61.50
2023-04-02T21:20:59.054Z,61.40
2023-04-02T21:23:30.529Z,61.10
2023-04-02T21:26:00.290Z,61.20
2023-04-02T21:28:33.130Z,60.90
2023-04-02T21:31:05.654Z,60.90
2023-04-02T21:33:39.786Z,60.60
2023-04-02T21:36:12.569Z,60.50
2023-04-02T21:38:45.876Z,60.50
2023-04-02T21:41:16.157Z,60.30
2023-04-02T21:43:45.979Z,60.40
2023-04-02T21:46:17.197Z,60.40
2023-04-02T21:48:48.962Z,60.60
2023-04-02T21:51:19.353Z,60.40
2023-04-02T21:53:48.138Z,60.00
2023-04-02T21:56:20.614Z,60.20
2023-04-02T21:58:51.912Z,60.90
2023-04-02T22:01:28.010Z,60.00
2023-04-02T22:04:07.697Z,60.00
2023-04-02T22:06:44.367Z,59.90
2023-04-02T22:09:15.548Z,59.70
2023-04-02T22:11:46.434Z,59.80
2023-04-02T22:14:17.641Z,60.00
2023-04-02T22:16:46.469Z,59.80
2023-04-02T22:19:17.691Z,59.70
2023-04-02T22:21:46.543Z,59.60
2023-04-02T22:24:24.993Z,59.80
2023-04-02T22:26:55.548Z,60.00
2023-04-02T22:29:24.230Z,59.70
2023-04-02T22:31:55.564Z,59.80
2023-04-02T22:34:28.161Z,59.90
2023-04-02T22:36:57.414Z,59.80
2023-04-02T22:39:25.897Z,59.60
2023-04-02T22:41:55.385Z,59.60
2023-04-02T22:44:24.046Z,59.50
2023-04-02T22:46:55.397Z,59.70
2023-04-02T22:49:37.931Z,59.50
2023-04-02T22:52:13.187Z,59.40
2023-04-02T22:54:48.150Z,59.60
2023-04-02T22:57:16.858Z,59.40
2023-04-02T22:59:45.194Z,59.30
2023-04-02T23:02:15.808Z,59.30
2023-04-02T23:04:47.359Z,59.30
2023-04-02T23:07:18.756Z,59.10
2023-04-02T23:09:47.096Z,59.00
2023-04-02T23:12:15.567Z,59.10
2023-04-02T23:14:43.825Z,59.00
2023-04-02T23:17:12.334Z,59.00
2023-04-02T23:19:40.642Z,58.80
2023-04-02T23:22:10.732Z,58.90
2023-04-02T23:24:39.075Z,58.50
2023-04-02T23:27:07.760Z,58.50
2023-04-02T23:29:36.178Z,58.30
2023-04-02T23:32:04.515Z,58.20
2023-04-02T23:34:32.845Z,58.20
2023-04-02T23:37:03.929Z,58.00
2023-04-02T23:39:33.728Z,58.10
2023-04-02T23:42:02.172Z,58.20
2023-04-02T23:44:31.044Z,58.00
2023-04-02T23:46:59.802Z,58.80
2023-04-02T23:49:27.997Z,57.90
2023-04-02T23:51:57.534Z,57.70
2023-04-02T23:54:30.813Z,57.80
2023-04-02T23:57:00.845Z,57.80
2023-04-02T23:59:29.553Z,57.80
